Time;durP1;ratioP1;P1;durP2;ratioP2;P2;SDS_P1;SDS_P2;PMS_P1;PMS_P2;Temp;Humidity;BMP_temperature;BMP_pressure;BME280_temperature;BME280_humidity;BME280_pressure;Samples;Min_cycle;Max_cycle;Signal;HPM_P1;HPM_P2
2021/07/19 00:00:58;;;;;;;;;;;;;;;17.70;100.00;101066.22;5072065;28;19977;-71
2021/07/19 00:03:24;;;;;;;;;;;;;;;17.75;100.00;101077.56;5072205;28;20061;-71
2021/07/19 00:05:51;;;;;;;;;;;;;;;17.80;100.00;101080.69;5071759;28;20015;-71
2021/07/19 00:08:17;;;;;;;;;;;;;;;17.81;100.00;101071.44;5072038;28;20367;-71
2021/07/19 00:10:43;;;;;;;;;;;;;;;17.82;100.00;101073.13;5071658;28;20028;-71
2021/07/19 00:13:09;;;;;;;;;;;;;;;17.86;100.00;101073.69;5071752;28;20024;-71
2021/07/19 00:15:36;;;;;;;;;;;;;;;17.86;100.00;101079.16;5071770;28;19982;-71
2021/07/19 00:18:03;;;;;;;;;;;;;;;17.85;100.00;101078.31;5071682;28;20336;-71
2021/07/19 00:20:30;;;;;;;;;;;;;;;17.83;100.00;101080.34;5071691;28;19971;-71
2021/07/19 00:22:56;;;;;;;;;;;;;;;17.80;100.00;101080.69;5071792;28;19946;-71
2021/07/19 00:25:24;;;;;;;;;;;;;;;17.81;100.00;101076.94;5071552;28;19925;-71
2021/07/19 00:27:55;;;;;;;;;;;;;;;17.82;100.00;101075.88;5071577;28;20442;-71
2021/07/19 00:30:21;;;;;;;;;;;;;;;17.77;100.00;101070.03;5071570;28;19925;-71
2021/07/19 00:32:48;;;;;;;;;;;;;;;17.79;100.00;101065.22;5071583;28;19968;-71
2021/07/19 00:35:16;;;;;;;;;;;;;;;17.77;100.00;101063.69;5071514;28;19939;-70
2021/07/19 00:37:43;;;;;;;;;;;;;;;17.77;100.00;101063.69;5071396;28;19936;-71
2021/07/19 00:40:11;;;;;;;;;;;;;;;17.78;100.00;101068.16;5071699;28;19928;-71
2021/07/19 00:42:40;;;;;;;;;;;;;;;17.82;100.00;101072.28;5070509;28;19931;-71
2021/07/19 00:45:09;;;;;;;;;;;;;;;17.78;100.00;101059.91;5071242;28;19924;-71
2021/07/19 00:47:35;;;;;;;;;;;;;;;17.79;100.00;101073.47;5071495;28;20015;-71
2021/07/19 00:50:01;;;;;;;;;;;;;;;17.77;100.00;101072.78;5070451;28;19932;-70
2021/07/19 00:52:30;;;;;;;;;;;;;;;17.73;100.00;101074.13;5071753;28;20426;-71
2021/07/19 00:54:58;;;;;;;;;;;;;;;17.71;100.00;101076.19;5070800;28;19928;-70
2021/07/19 00:57:26;;;;;;;;;;;;;;;17.71;100.00;101087.16;5070030;28;20023;-70
2021/07/19 00:59:53;;;;;;;;;;;;;;;17.70;100.00;101078.06;5070471;28;19929;-71
2021/07/19 01:02:21;;;;;;;;;;;;;;;17.71;100.00;101084.41;5069841;28;19931;-71
2021/07/19 01:04:50;;;;;;;;;;;;;;;17.69;100.00;101087.31;5069972;28;19947;-70
2021/07/19 01:07:19;;;;;;;;;;;;;;;17.67;100.00;101088.50;5070115;28;20349;-71
2021/07/19 01:09:48;;;;;;;;;;;;;;;17.63;100.00;101090.72;5069878;28;20353;-71
2021/07/19 01:12:14;;;;;;;;;;;;;;;17.62;100.00;101082.66;5071332;28;19931;-71
2021/07/19 01:14:47;;;;;;;;;;;;;;;17.55;100.00;101083.28;5069755;28;19951;-71
2021/07/19 01:17:13;;;;;;;;;;;;;;;17.50;100.00;101077.41;5071097;28;19978;-70
2021/07/19 01:19:41;;;;;;;;;;;;;;;17.42;100.00;101082.00;5069700;28;19924;-71
2021/07/19 01:22:18;;;;;;;;;;;;;;;17.38;100.00;101081.44;5071200;28;19975;-71
2021/07/19 01:24:51;;;;;;;;;;;;;;;17.33;100.00;101095.66;5069807;28;19943;-70
2021/07/19 01:27:33;;;;;;;;;;;;;;;17.27;100.00;101089.97;5069896;28;20307;-71
2021/07/19 01:30:04;;;;;;;;;;;;;;;17.23;100.00;101090.25;5071214;28;19993;-71
2021/07/19 01:32:32;;;;;;;;;;;;;;;17.21;100.00;101091.44;5069746;28;19931;-72
2021/07/19 01:35:00;;;;;;;;;;;;;;;17.21;100.00;101095.06;5069912;28;20018;-71
2021/07/19 01:37:28;;;;;;;;;;;;;;;17.20;100.00;101093.31;5069484;28;19936;-71
2021/07/19 01:40:05;;;;;;;;;;;;;;;17.18;100.00;101092.63;5069918;28;19924;-70
2021/07/19 01:42:32;;;;;;;;;;;;;;;17.14;100.00;101095.84;5070307;28;19925;-71
2021/07/19 01:45:00;;;;;;;;;;;;;;;17.11;100.00;101099.75;5074697;28;19967;-71
2021/07/19 01:47:28;;;;;;;;;;;;;;;17.10;100.00;101100.78;5074351;28;20367;-71
2021/07/19 01:49:55;;;;;;;;;;;;;;;17.09;100.00;101101.81;5073164;28;19924;-71
2021/07/19 01:52:22;;;;;;;;;;;;;;;17.02;100.00;101108.94;5074374;28;19924;-71
2021/07/19 01:54:48;;;;;;;;;;;;;;;16.97;100.00;101111.28;5074019;28;19970;-71
2021/07/19 01:57:16;;;;;;;;;;;;;;;16.94;100.00;101112.47;5072986;28;20480;-71
2021/07/19 01:59:54;;;;;;;;;;;;;;;16.90;100.00;101109.19;5074399;28;20031;-70
2021/07/19 02:02:41;;;;;;;;;;;;;;;16.87;100.00;101111.34;5074488;28;19993;-71
2021/07/19 02:05:17;;;;;;;;;;;;;;;16.80;100.00;101108.38;5073067;28;20471;-71
2021/07/19 02:07:52;;;;;;;;;;;;;;;16.69;100.00;101108.63;5074165;28;20018;-70
2021/07/19 02:10:21;;;;;;;;;;;;;;;16.65;100.00;101115.38;5073219;28;19924;-71
2021/07/19 02:12:55;;;;;;;;;;;;;;;16.57;100.00;101113.44;5072147;28;20299;-71
2021/07/19 02:15:22;;;;;;;;;;;;;;;16.53;100.00;101109.31;5072963;28;19924;-71
2021/07/19 02:17:55;;;;;;;;;;;;;;;16.47;100.00;101124.44;5072749;28;20388;-70
2021/07/19 02:20:23;;;;;;;;;;;;;;;16.40;100.00;101112.41;5074136;28;20372;-71
2021/07/19 02:22:51;;;;;;;;;;;;;;;16.30;100.00;101115.22;5072593;28;19928;-71
2021/07/19 02:25:39;;;;;;;;;;;;;;;16.23;100.00;101116.81;5073777;28;19928;-71
2021/07/19 02:28:07;;;;;;;;;;;;;;;16.13;100.00;101125.09;5073509;28;19924;-71
2021/07/19 02:30:34;;;;;;;;;;;;;;;16.01;100.00;101129.03;5073497;28;20430;-71
2021/07/19 02:33:05;;;;;;;;;;;;;;;15.86;100.00;101129.53;5072447;28;20015;-71
2021/07/19 02:35:41;;;;;;;;;;;;;;;15.70;100.00;101116.44;5071924;28;21547;-71
2021/07/19 02:38:09;;;;;;;;;;;;;;;15.58;100.00;101125.84;5072298;28;20019;-71
2021/07/19 02:40:45;;;;;;;;;;;;;;;15.44;100.00;101135.34;5072379;28;19973;-70
2021/07/19 02:43:12;;;;;;;;;;;;;;;15.34;100.00;101137.22;5073467;28;20015;-70
2021/07/19 02:45:40;;;;;;;;;;;;;;;15.27;100.00;101141.56;5073197;28;19925;-71
2021/07/19 02:48:09;;;;;;;;;;;;;;;15.16;100.00;101134.38;5072122;28;20483;-70
2021/07/19 02:50:39;;;;;;;;;;;;;;;15.09;100.00;101136.81;5073333;28;19978;-70
2021/07/19 02:53:08;;;;;;;;;;;;;;;15.03;100.00;101131.94;5072180;28;19924;-71
2021/07/19 02:55:34;;;;;;;;;;;;;;;15.04;100.00;101139.97;5073504;28;19924;-70
2021/07/19 02:58:04;;;;;;;;;;;;;;;15.05;100.00;101135.41;5071910;28;19998;-71
2021/07/19 03:00:32;;;;;;;;;;;;;;;15.06;100.00;101142.59;5072140;28;19929;-70
2021/07/19 03:03:01;;;;;;;;;;;;;;;15.06;100.00;101140.72;5073130;28;19967;-72
2021/07/19 03:05:30;;;;;;;;;;;;;;;15.09;100.00;101149.66;5071475;28;19929;-71
2021/07/19 03:08:01;;;;;;;;;;;;;;;15.13;100.00;101153.81;5071652;28;19985;-71
2021/07/19 03:10:57;;;;;;;;;;;;;;;15.14;100.00;101153.66;5071811;28;20027;-70
2021/07/19 03:13:29;;;;;;;;;;;;;;;15.13;100.00;101151.94;5071653;28;19925;-70
2021/07/19 03:15:58;;;;;;;;;;;;;;;15.11;100.00;101156.66;5071947;28;19925;-71
2021/07/19 03:18:24;;;;;;;;;;;;;;;15.07;100.00;101160.69;5072865;28;20391;-71
2021/07/19 03:20:54;;;;;;;;;;;;;;;15.01;100.00;101166.75;5071517;28;20376;-70
2021/07/19 03:23:22;;;;;;;;;;;;;;;14.96;100.00;101169.91;5072294;28;19968;-70
2021/07/19 03:25:51;;;;;;;;;;;;;;;15.01;100.00;101172.22;5071439;28;20414;-71
2021/07/19 03:28:18;;;;;;;;;;;;;;;14.97;100.00;101165.31;5072842;28;19955;-70
2021/07/19 03:30:44;;;;;;;;;;;;;;;14.97;100.00;101165.31;5072499;28;19928;-71
2021/07/19 03:33:12;;;;;;;;;;;;;;;14.94;100.00;101176.53;5071403;28;20441;-70
2021/07/19 03:35:39;;;;;;;;;;;;;;;14.97;100.00;101173.53;5071293;28;19932;-70
2021/07/19 03:38:09;;;;;;;;;;;;;;;14.90;100.00;101170.50;5072328;28;19936;-70
2021/07/19 03:40:55;;;;;;;;;;;;;;;14.86;100.00;101175.38;5075539;28;20319;-70
2021/07/19 03:43:24;;;;;;;;;;;;;;;14.85;100.00;101179.09;5080412;28;19951;-70
2021/07/19 03:45:50;;;;;;;;;;;;;;;14.82;100.00;101168.47;5091411;28;19924;-70
2021/07/19 03:48:20;;;;;;;;;;;;;;;14.83;100.00;101174.78;5083069;28;19932;-70
2021/07/19 03:50:48;;;;;;;;;;;;;;;14.82;100.00;101173.94;5071077;28;19924;-70
2021/07/19 03:53:17;;;;;;;;;;;;;;;14.80;100.00;101180.53;5072990;28;19925;-70
2021/07/19 03:55:56;;;;;;;;;;;;;;;14.79;100.00;101176.97;5091389;28;19924;-70
2021/07/19 03:58:24;;;;;;;;;;;;;;;14.86;100.00;101180.84;5073761;28;19960;-70
2021/07/19 04:00:53;;;;;;;;;;;;;;;14.82;100.00;101184.88;5071784;28;20437;-70
2021/07/19 04:03:23;;;;;;;;;;;;;;;14.81;100.00;101174.06;5071963;28;19932;-70
2021/07/19 04:05:56;;;;;;;;;;;;;;;14.80;100.00;101186.84;5070174;28;19932;-70
2021/07/19 04:08:28;;;;;;;;;;;;;;;14.82;100.00;101184.88;5086498;28;19970;-70
2021/07/19 04:10:55;;;;;;;;;;;;;;;14.81;100.00;101183.13;5089296;28;20030;-70
2021/07/19 04:13:23;;;;;;;;;;;;;;;14.84;100.00;101187.44;5089039;28;20395;-70
2021/07/19 04:15:51;;;;;;;;;;;;;;;14.91;100.00;101188.59;5090661;28;19924;-71
2021/07/19 04:18:21;;;;;;;;;;;;;;;14.86;100.00;101180.84;5067978;28;19931;-72
2021/07/19 04:20:51;;;;;;;;;;;;;;;14.90;100.00;101190.47;5068598;28;19932;-72
2021/07/19 04:23:19;;;;;;;;;;;;;;;15.00;100.00;101195.94;5071520;28;19970;-72
2021/07/19 04:25:49;;;;;;;;;;;;;;;14.94;100.00;101196.53;5072128;28;20009;-71
2021/07/19 04:28:19;;;;;;;;;;;;;;;14.94;100.00;101202.00;5071494;28;19924;-72
2021/07/19 04:30:47;;;;;;;;;;;;;;;14.95;100.00;101200.13;5070537;28;20008;-72
2021/07/19 04:33:16;;;;;;;;;;;;;;;14.94;100.00;101203.84;5070399;28;19990;-72
2021/07/19 04:35:45;;;;;;;;;;;;;;;14.86;100.00;101202.69;5070261;28;19989;-71
2021/07/19 04:38:13;;;;;;;;;;;;;;;14.76;100.00;101198.22;5072021;28;19924;-71
2021/07/19 04:40:39;;;;;;;;;;;;;;;14.80;100.00;101195.06;5070022;28;19925;-72
2021/07/19 04:43:07;;;;;;;;;;;;;;;14.82;100.00;101197.69;5071429;28;20403;-72
2021/07/19 04:45:33;;;;;;;;;;;;;;;14.78;100.00;101190.72;5071394;28;20019;-72
2021/07/19 04:48:00;;;;;;;;;;;;;;;14.59;100.00;101197.00;5071623;28;20358;-71
2021/07/19 04:50:26;;;;;;;;;;;;;;;14.61;100.00;101195.00;5071698;28;19967;-72
2021/07/19 04:53:09;;;;;;;;;;;;;;;14.62;100.00;101196.69;5071523;28;19991;-72
2021/07/19 04:55:37;;;;;;;;;;;;;;;14.56;100.00;101185.34;5071470;28;20388;-71
2021/07/19 04:58:04;;;;;;;;;;;;;;;14.55;100.00;101197.28;5071353;28;19970;-71
2021/07/19 05:00:33;;;;;;;;;;;;;;;14.50;100.00;101204.19;5071430;28;19956;-72
2021/07/19 05:03:01;;;;;;;;;;;;;;;14.60;100.00;101201.47;5071417;28;20443;-72
2021/07/19 05:05:28;;;;;;;;;;;;;;;14.80;100.00;101203.25;5071650;28;19933;-71
2021/07/19 05:07:56;;;;;;;;;;;;;;;14.86;100.00;101199.97;5071294;28;19948;-71
2021/07/19 05:10:23;;;;;;;;;;;;;;;14.93;100.00;101193.94;5070311;28;19924;-72
2021/07/19 05:12:51;;;;;;;;;;;;;;;15.03;100.00;101203.00;5071392;28;19956;-72
2021/07/19 05:15:18;;;;;;;;;;;;;;;15.02;100.00;101202.16;5070903;28;19928;-72
2021/07/19 05:17:46;;;;;;;;;;;;;;;15.11;100.00;101200.41;5072506;28;19928;-71
2021/07/19 05:20:13;;;;;;;;;;;;;;;15.10;100.00;101201.44;5079970;28;20383;-72
2021/07/19 05:22:39;;;;;;;;;;;;;;;15.07;100.00;101204.44;5078161;28;19967;-72
2021/07/19 05:25:06;;;;;;;;;;;;;;;15.13;100.00;101209.34;5075247;28;19924;-71
2021/07/19 05:27:33;;;;;;;;;;;;;;;15.11;100.00;101205.88;5075434;28;19967;-72
2021/07/19 05:29:59;;;;;;;;;;;;;;;15.38;100.00;101207.06;5075174;28;19928;-72
2021/07/19 05:32:26;;;;;;;;;;;;;;;15.43;100.00;101204.75;5074976;28;20014;-71
2021/07/19 05:34:53;;;;;;;;;;;;;;;15.78;100.00;101206.00;5073337;28;19928;-72
2021/07/19 05:37:20;;;;;;;;;;;;;;;15.80;100.00;101205.84;5074853;28;19932;-72
2021/07/19 05:39:47;;;;;;;;;;;;;;;16.07;100.00;101205.09;5074868;28;19931;-72
2021/07/19 05:42:13;;;;;;;;;;;;;;;16.05;100.00;101201.66;5056733;28;19979;-72
2021/07/19 05:44:39;;;;;;;;;;;;;;;16.02;100.00;101213.75;5074578;28;20021;-72
2021/07/19 05:47:06;;;;;;;;;;;;;;;15.80;100.00;101212.22;5074425;28;19934;-71
2021/07/19 05:49:32;;;;;;;;;;;;;;;15.81;100.00;101211.22;5074258;28;19964;-70
2021/07/19 05:52:00;;;;;;;;;;;;;;;15.71;100.00;101211.22;5074451;28;19952;-71
2021/07/19 05:54:26;;;;;;;;;;;;;;;15.86;100.00;101210.75;5074256;28;19956;-71
2021/07/19 05:56:52;;;;;;;;;;;;;;;15.84;100.00;101205.44;5074127;28;20015;-71
2021/07/19 05:59:18;;;;;;;;;;;;;;;15.91;100.00;101208.44;5074350;28;19975;-71
2021/07/19 06:01:45;;;;;;;;;;;;;;;15.92;100.00;101210.19;5074260;28;20365;-71
2021/07/19 06:04:11;;;;;;;;;;;;;;;16.03;100.00;101206.41;5074176;28;19951;-71
2021/07/19 06:06:37;;;;;;;;;;;;;;;16.35;100.00;101214.19;5056182;28;20307;-72
2021/07/19 06:09:05;;;;;;;;;;;;;;;16.68;100.00;101214.63;5073116;28;19924;-71
2021/07/19 06:11:31;;;;;;;;;;;;;;;17.02;100.00;101202.19;5073920;28;19964;-72
2021/07/19 06:13:57;;;;;;;;;;;;;;;16.92;100.00;101196.78;5074212;28;19928;-72
2021/07/19 06:16:24;;;;;;;;;;;;;;;17.22;100.00;101195.53;5074018;28;20011;-71
2021/07/19 06:18:50;;;;;;;;;;;;;;;17.31;100.00;101188.22;5073875;28;20023;-71
2021/07/19 06:21:16;;;;;;;;;;;;;;;17.53;100.00;101192.38;5073957;28;20348;-71
2021/07/19 06:23:44;;;;;;;;;;;;;;;17.95;100.00;101188.06;5072180;28;20281;-71
2021/07/19 06:26:12;;;;;;;;;;;;;;;17.85;100.00;101195.50;5073944;28;19967;-72
2021/07/19 06:28:38;;;;;;;;;;;;;;;17.81;100.00;101192.25;5073133;28;19960;-71
2021/07/19 06:31:05;;;;;;;;;;;;;;;17.92;100.00;101185.66;5073432;28;20481;-72
2021/07/19 06:33:31;;;;;;;;;;;;;;;18.07;100.00;101186.75;5073532;28;20007;-72
2021/07/19 06:35:57;;;;;;;;;;;;;;;18.58;100.00;101183.22;5073649;28;19947;-71
2021/07/19 06:38:24;;;;;;;;;;;;;;;18.35;100.00;101182.97;5073446;28;19970;-71
2021/07/19 06:40:50;;;;;;;;;;;;;;;18.70;100.00;101192.03;5073464;28;20392;-71
2021/07/19 06:43:17;;;;;;;;;;;;;;;18.88;100.00;101180.88;5072211;28;19960;-72
2021/07/19 06:45:46;;;;;;;;;;;;;;;19.03;100.00;101178.41;5072186;28;19978;-71
2021/07/19 06:48:13;;;;;;;;;;;;;;;19.17;100.00;101180.47;5073429;28;19968;-71
2021/07/19 06:50:39;;;;;;;;;;;;;;;19.61;100.00;101183.94;5073230;28;19979;-71
2021/07/19 06:53:05;;;;;;;;;;;;;;;19.62;100.00;101178.25;5073448;28;19967;-72
2021/07/19 06:55:32;;;;;;;;;;;;;;;19.92;100.00;101185.97;5073050;28;20016;-71
2021/07/19 06:57:58;;;;;;;;;;;;;;;19.81;100.00;101187.22;5071838;28;19978;-71
2021/07/19 07:00:26;;;;;;;;;;;;;;;20.10;100.00;101189.38;5071700;28;20008;-72
2021/07/19 07:02:52;;;;;;;;;;;;;;;20.35;100.00;101183.78;5073102;28;19968;-71
2021/07/19 07:05:18;;;;;;;;;;;;;;;20.43;100.00;101182.91;5072853;28;19981;-72
2021/07/19 07:07:45;;;;;;;;;;;;;;;20.19;100.00;101188.34;5072295;28;19964;-71
2021/07/19 07:10:12;;;;;;;;;;;;;;;20.71;100.00;101177.78;5072916;28;19978;-71
2021/07/19 07:12:39;;;;;;;;;;;;;;;20.67;100.00;101184.69;5070206;28;19934;-70
2021/07/19 07:15:06;;;;;;;;;;;;;;;20.65;100.00;101181.25;5072709;28;20315;-71
2021/07/19 07:17:33;;;;;;;;;;;;;;;21.27;100.00;101176.75;5071217;28;19931;-71
2021/07/19 07:20:00;;;;;;;;;;;;;;;21.33;100.00;101182.38;5072857;28;20379;-71
2021/07/19 07:22:26;;;;;;;;;;;;;;;21.23;100.00;101171.59;5072841;28;19940;-71
2021/07/19 07:24:52;;;;;;;;;;;;;;;21.31;100.00;101175.34;5072201;28;19928;-71
2021/07/19 07:27:19;;;;;;;;;;;;;;;21.31;100.00;101178.09;5072379;28;20022;-71
2021/07/19 07:29:46;;;;;;;;;;;;;;;21.43;100.00;101173.00;5072440;28;20368;-71
2021/07/19 07:32:12;;;;;;;;;;;;;;;21.26;100.00;101173.13;5072550;28;19967;-71
2021/07/19 07:34:41;;;;;;;;;;;;;;;21.65;100.00;101161.09;5072360;28;20396;-71
2021/07/19 07:37:08;;;;;;;;;;;;;;;21.46;100.00;101169.84;5072199;28;19963;-72
2021/07/19 07:39:34;;;;;;;;;;;;;;;21.96;100.00;101165.59;5071800;28;20011;-72
2021/07/19 07:42:01;;;;;;;;;;;;;;;21.50;100.00;101157.38;5071676;28;19958;-72
2021/07/19 07:44:28;;;;;;;;;;;;;;;21.83;100.00;101171.81;5071617;28;20418;-71
2021/07/19 07:46:54;;;;;;;;;;;;;;;22.49;100.00;101157.25;5071942;28;19931;-71
2021/07/19 07:49:21;;;;;;;;;;;;;;;22.27;100.00;101158.19;5072074;28;19934;-72
2021/07/19 07:51:49;;;;;;;;;;;;;;;21.35;100.00;101155.47;5072178;28;19978;-71
2021/07/19 07:54:16;;;;;;;;;;;;;;;20.62;100.00;101156.78;5072075;28;19928;-71
2021/07/19 07:56:43;;;;;;;;;;;;;;;20.61;100.00;101169.72;5053708;28;20419;-71
2021/07/19 07:59:09;;;;;;;;;;;;;;;20.30;100.00;101166.94;5072007;28;20017;-71
2021/07/19 08:01:35;;;;;;;;;;;;;;;20.34;100.00;101162.78;5070595;28;20026;-71
2021/07/19 08:04:02;;;;;;;;;;;;;;;20.40;100.00;101165.69;5071537;28;20042;-71
2021/07/19 08:06:28;;;;;;;;;;;;;;;19.97;100.00;101162.38;5071664;28;20007;-71
2021/07/19 08:08:56;;;;;;;;;;;;;;;19.54;100.00;101157.06;5071745;28;19928;-71
2021/07/19 08:11:22;;;;;;;;;;;;;;;19.28;100.00;101161.91;5071773;28;20011;-71
2021/07/19 08:13:48;;;;;;;;;;;;;;;19.00;100.00;101159.47;5071558;28;19929;-71
2021/07/19 08:16:14;;;;;;;;;;;;;;;18.90;100.00;101160.47;5071623;28;20343;-71
2021/07/19 08:18:41;;;;;;;;;;;;;;;18.91;100.00;101158.59;5071562;28;19928;-71
2021/07/19 08:21:07;;;;;;;;;;;;;;;19.00;100.00;101159.47;5071563;28;19963;-71
2021/07/19 08:23:33;;;;;;;;;;;;;;;19.40;100.00;101161.41;5070088;28;20015;-71
2021/07/19 08:26:01;;;;;;;;;;;;;;;19.44;100.00;101161.94;5071759;28;20028;-71
2021/07/19 08:28:27;;;;;;;;;;;;;;;19.02;100.00;101160.16;5071397;28;20399;-71
2021/07/19 08:30:53;;;;;;;;;;;;;;;19.12;100.00;101165.50;5070943;28;20027;-71
2021/07/19 08:33:20;;;;;;;;;;;;;;;19.26;100.00;101159.31;5071337;28;19924;-71
2021/07/19 08:35:46;;;;;;;;;;;;;;;19.49;100.00;101165.00;5071427;28;19990;-71
2021/07/19 08:38:13;;;;;;;;;;;;;;;19.55;100.00;101169.81;5071477;28;20574;-71
2021/07/19 08:40:39;;;;;;;;;;;;;;;19.45;100.00;101171.88;5071070;28;20377;-72
2021/07/19 08:43:07;;;;;;;;;;;;;;;19.12;100.00;101169.13;5071557;28;19925;-71
2021/07/19 08:45:34;;;;;;;;;;;;;;;18.89;100.00;101168.91;5071250;28;19932;-72
2021/07/19 08:48:00;;;;;;;;;;;;;;;18.82;100.00;101163.19;5071442;28;19924;-71
2021/07/19 08:50:26;;;;;;;;;;;;;;;18.71;100.00;101166.25;5071520;28;19968;-71
2021/07/19 08:52:53;;;;;;;;;;;;;;;18.43;100.00;101171.16;5074321;28;20011;-71
2021/07/19 08:55:20;;;;;;;;;;;;;;;18.09;100.00;101175.59;5075509;28;19925;-71
2021/07/19 08:57:48;;;;;;;;;;;;;;;18.00;100.00;101177.47;5074896;28;19993;-71
2021/07/19 09:00:17;;;;;;;;;;;;;;;18.10;100.00;101169.09;5075404;28;19970;-71
2021/07/19 09:02:44;;;;;;;;;;;;;;;18.19;100.00;101168.13;5075103;28;20339;-71
2021/07/19 09:05:11;;;;;;;;;;;;;;;18.47;100.00;101169.78;5075023;28;19967;-71
2021/07/19 09:07:37;;;;;;;;;;;;;;;18.76;100.00;101163.88;5074812;28;19932;-71
2021/07/19 09:10:04;;;;;;;;;;;;;;;18.99;100.00;101163.25;5075326;28;20023;-71
2021/07/19 09:12:31;;;;;;;;;;;;;;;18.92;100.00;101156.69;5075288;28;20015;-71
2021/07/19 09:14:58;;;;;;;;;;;;;;;18.81;100.00;101164.19;5075004;28;20385;-71
2021/07/19 09:17:26;;;;;;;;;;;;;;;18.74;100.00;101157.66;5074616;28;19971;-70
2021/07/19 09:19:52;;;;;;;;;;;;;;;18.42;100.00;101156.53;5074992;28;19932;-71
2021/07/19 09:22:22;;;;;;;;;;;;;;;18.09;100.00;101161.88;5074748;28;19956;-71
2021/07/19 09:24:48;;;;;;;;;;;;;;;18.18;100.00;101165.53;5074504;28;20027;-71
2021/07/19 09:27:17;;;;;;;;;;;;;;;18.26;100.00;101167.47;5073781;28;20023;-71
2021/07/19 09:29:43;;;;;;;;;;;;;;;18.37;100.00;101169.91;5074738;28;20455;-71
2021/07/19 09:32:11;;;;;;;;;;;;;;;18.26;100.00;101173.81;5074540;28;20010;-72
2021/07/19 09:34:41;;;;;;;;;;;;;;;18.32;100.00;101178.66;5074215;28;20444;-71
2021/07/19 09:37:08;;;;;;;;;;;;;;;18.28;100.00;101173.63;5060271;28;19960;-71
2021/07/19 09:39:40;;;;;;;;;;;;;;;18.28;100.00;101170.91;5054715;28;20011;-71
2021/07/19 09:42:07;;;;;;;;;;;;;;;18.15;100.00;101169.47;5054637;28;19979;-72
2021/07/19 09:44:34;;;;;;;;;;;;;;;18.14;100.00;101175.13;5054075;28;20015;-72
2021/07/19 09:47:01;;;;;;;;;;;;;;;18.15;100.00;101172.22;5054766;28;19964;-72
2021/07/19 09:49:28;;;;;;;;;;;;;;;18.27;100.00;101169.19;5054387;28;19928;-72
2021/07/19 09:51:59;;;;;;;;;;;;;;;18.21;100.00;101171.56;5054244;28;20027;-72
2021/07/19 09:54:32;;;;;;;;;;;;;;;18.38;100.00;101171.63;5054011;28;20301;-72
2021/07/19 09:57:00;;;;;;;;;;;;;;;18.27;100.00;101164.53;5054063;28;20023;-72
2021/07/19 09:59:26;;;;;;;;;;;;;;;18.34;100.00;101173.00;5054494;28;20358;-71
2021/07/19 10:01:53;;;;;;;;;;;;;;;18.30;100.00;101171.59;5054412;28;20006;-71
2021/07/19 10:04:20;;;;;;;;;;;;;;;18.12;100.00;101172.56;5053219;28;19924;-71
2021/07/19 10:06:48;;;;;;;;;;;;;;;17.95;100.00;101174.34;5053632;28;20027;-72
2021/07/19 10:09:16;;;;;;;;;;;;;;;17.83;100.00;101173.72;5054172;28;19928;-72
2021/07/19 10:11:47;;;;;;;;;;;;;;;18.00;100.00;101173.88;5054121;28;20010;-71
2021/07/19 10:14:13;;;;;;;;;;;;;;;18.33;100.00;101168.50;5053526;28;20015;-72
2021/07/19 10:16:40;;;;;;;;;;;;;;;18.83;100.00;101166.81;5053896;28;19929;-72
2021/07/19 10:19:06;;;;;;;;;;;;;;;19.07;100.00;101171.53;5053918;28;19925;-71
2021/07/19 10:21:35;;;;;;;;;;;;;;;19.21;100.00;101172.72;5057374;28;20455;-72
2021/07/19 10:24:02;;;;;;;;;;;;;;;19.15;100.00;101170.69;5053553;28;20274;-72
2021/07/19 10:26:31;;;;;;;;;;;;;;;19.34;100.00;101166.72;5053879;28;19971;-72
2021/07/19 10:28:57;;;;;;;;;;;;;;;19.45;100.00;101163.63;5053604;28;19925;-72
2021/07/19 10:31:24;;;;;;;;;;;;;;;19.62;100.00;101163.63;5053436;28;19925;-72
2021/07/19 10:33:52;;;;;;;;;;;;;;;20.00;100.00;101159.28;5053492;28;20487;-72
2021/07/19 10:36:22;;;;;;;;;;;;;;;20.36;100.00;101161.56;5053615;28;20412;-72
2021/07/19 10:38:49;;;;;;;;;;;;;;;19.98;100.00;101168.75;5053405;28;19968;-72
2021/07/19 10:41:15;;;;;;;;;;;;;;;20.29;100.00;101167.97;5053486;28;20012;-72
2021/07/19 10:43:43;;;;;;;;;;;;;;;20.03;100.00;101163.56;5053119;28;19929;-72
2021/07/19 10:46:10;;;;;;;;;;;;;;;20.52;100.00;101163.41;5053289;28;20403;-72
2021/07/19 10:48:37;;;;;;;;;;;;;;;20.84;100.00;101161.50;5052623;28;19924;-72
2021/07/19 10:51:13;;;;;;;;;;;;;;;20.95;100.00;101156.63;5053356;28;19929;-72
2021/07/19 10:53:40;;;;;;;;;;;;;;;20.72;100.00;101152.81;5070099;28;19924;-72
2021/07/19 10:56:07;;;;;;;;;;;;;;;20.85;100.00;101154.09;5073442;28;19931;-73
2021/07/19 10:58:38;;;;;;;;;;;;;;;21.13;100.00;101157.19;5072887;28;20319;-72
2021/07/19 11:01:05;;;;;;;;;;;;;;;21.06;100.00;101156.22;5072978;28;19929;-72
2021/07/19 11:03:39;;;;;;;;;;;;;;;20.83;100.00;101158.94;5072713;28;19924;-72
2021/07/19 11:06:05;;;;;;;;;;;;;;;20.60;100.00;101162.47;5073230;28;20019;-72
2021/07/19 11:08:31;;;;;;;;;;;;;;;20.32;100.00;101164.84;5072597;28;20011;-72
2021/07/19 11:10:59;;;;;;;;;;;;;;;20.00;100.00;101162.03;5072907;28;19975;-72
2021/07/19 11:13:31;;;;;;;;;;;;;;;19.88;100.00;101153.28;5071676;28;20019;-72
2021/07/19 11:15:57;;;;;;;;;;;;;;;19.78;100.00;101162.75;5071556;28;19932;-72
2021/07/19 11:18:27;;;;;;;;;;;;;;;19.55;100.00;101158.81;5072339;28;20386;-72
2021/07/19 11:20:55;;;;;;;;;;;;;;;19.52;100.00;101153.66;5072348;28;19933;-71
2021/07/19 11:23:25;;;;;;;;;;;;;;;19.61;100.00;101156.41;5072320;28;19958;-71
2021/07/19 11:25:52;;;;;;;;;;;;;;;19.67;100.00;101161.19;5071719;28;20483;-71
2021/07/19 11:28:20;;;;;;;;;;;;;;;19.62;100.00;101160.88;5072076;28;19955;-72
2021/07/19 11:31:02;;;;;;;;;;;;;;;19.64;100.00;101164.28;5072059;28;19978;-71
2021/07/19 11:33:34;;;;;;;;;;;;;;;19.72;100.00;101156.91;5072141;28;20007;-72
2021/07/19 11:36:02;;;;;;;;;;;;;;;20.05;100.00;101165.09;5071515;28;20019;-72
2021/07/19 11:38:35;;;;;;;;;;;;;;;20.17;100.00;101162.84;5071729;28;20292;-72
2021/07/19 11:41:12;;;;;;;;;;;;;;;20.17;100.00;101157.31;5071993;28;19986;-72
2021/07/19 11:43:39;;;;;;;;;;;;;;;20.32;100.00;101154.66;5071287;28;19925;-72
2021/07/19 11:46:06;;;;;;;;;;;;;;;20.24;100.00;101151.94;5071979;28;19924;-72
2021/07/19 11:48:33;;;;;;;;;;;;;;;20.39;100.00;101152.06;5071577;28;19924;-72
2021/07/19 11:51:00;;;;;;;;;;;;;;;20.22;100.00;101151.28;5071804;28;19963;-72
2021/07/19 11:53:26;;;;;;;;;;;;;;;20.06;100.00;101155.81;5071058;28;20391;-72
2021/07/19 11:55:53;;;;;;;;;;;;;;;19.64;100.00;101154.16;5070991;28;19967;-71
2021/07/19 11:58:19;;;;;;;;;;;;;;;19.32;100.00;101160.53;5071393;28;19952;-71
2021/07/19 12:00:45;;;;;;;;;;;;;;;19.05;100.00;101162.56;5071018;28;20349;-71
2021/07/19 12:03:13;;;;;;;;;;;;;;;18.71;100.00;101158.88;5071514;28;19978;-71
2021/07/19 12:05:50;;;;;;;;;;;;;;;18.53;100.00;101166.38;5069371;28;20419;-71
2021/07/19 12:08:17;;;;;;;;;;;;;;;18.34;100.00;101162.84;5071461;28;19930;-71
2021/07/19 12:10:44;;;;;;;;;;;;;;;18.04;100.00;101167.88;5069883;28;19932;-71
2021/07/19 12:13:12;;;;;;;;;;;;;;;17.89;100.00;101170.31;5071371;28;20023;-72
2021/07/19 12:15:38;;;;;;;;;;;;;;;17.78;100.00;101175.22;5071221;28;19978;-72
2021/07/19 12:18:05;;;;;;;;;;;;;;;17.77;100.00;101174.38;5071532;28;19968;-72
2021/07/19 12:20:34;;;;;;;;;;;;;;;17.72;100.00;101176.72;5072051;28;20541;-71
2021/07/19 12:23:02;;;;;;;;;;;;;;;17.66;100.00;101171.88;5071619;28;19946;-71
2021/07/19 12:25:28;;;;;;;;;;;;;;;17.72;100.00;101165.75;5070777;28;20002;-71
2021/07/19 12:27:58;;;;;;;;;;;;;;;17.82;100.00;101165.63;5070610;28;20011;-71
2021/07/19 12:30:24;;;;;;;;;;;;;;;17.96;100.00;101162.34;5071321;28;19978;-71
2021/07/19 12:32:51;;;;;;;;;;;;;;;18.13;100.00;101174.28;5071276;28;19991;-71